createdAt,value
2022-08-04T00:00:17.412Z,11.88
2022-08-04T00:02:55.489Z,10.98
2022-08-04T00:05:39.138Z,11.27
2022-08-04T00:08:26.834Z,11.65
2022-08-04T00:11:01.352Z,10.65
2022-08-04T00:13:38.108Z,11.90
2022-08-04T00:16:38.417Z,11.52
2022-08-04T00:19:26.176Z,10.77
2022-08-04T00:22:05.777Z,11.52
2022-08-04T00:24:39.015Z,12.35
2022-08-04T00:27:11.796Z,11.25
2022-08-04T00:29:43.963Z,11.23
2022-08-04T00:32:34.073Z,11.95
2022-08-04T00:37:51.310Z,11.13
2022-08-04T00:40:53.545Z,11.45
2022-08-04T00:43:34.346Z,10.65
2022-08-04T00:47:02.544Z,10.98
2022-08-04T00:50:00.335Z,11.05
2022-08-04T00:52:46.910Z,10.55
2022-08-04T00:55:33.571Z,10.82
2022-08-04T00:58:42.104Z,10.38
2022-08-04T01:01:48.352Z,9.27
2022-08-04T01:04:30.271Z,10.75
2022-08-04T01:07:49.863Z,9.90
2022-08-04T01:10:58.690Z,11.65
2022-08-04T01:14:26.320Z,9.75
2022-08-04T01:17:13.179Z,10.50
2022-08-04T01:20:06.098Z,9.82
2022-08-04T01:22:52.202Z,11.30
2022-08-04T01:26:42.145Z,10.48
2022-08-04T01:29:15.066Z,9.93
2022-08-04T01:32:08.098Z,11.07
2022-08-04T01:34:47.534Z,10.98
2022-08-04T01:38:21.189Z,10.57
2022-08-04T01:40:58.038Z,10.02
2022-08-04T01:43:30.822Z,11.18
2022-08-04T01:46:05.364Z,10.27
2022-08-04T01:48:47.636Z,11.35
2022-08-04T01:51:22.588Z,13.20
2022-08-04T01:53:54.764Z,12.60
2022-08-04T01:56:29.381Z,11.40
2022-08-04T01:59:03.706Z,12.05
2022-08-04T02:01:37.457Z,10.85
2022-08-04T02:04:22.099Z,10.93
2022-08-04T02:07:38.928Z,10.77
2022-08-04T02:10:36.212Z,10.15
2022-08-04T02:13:34.439Z,10.02
2022-08-04T02:16:32.958Z,11.30
2022-08-04T02:19:29.063Z,10.10
2022-08-04T02:22:09.720Z,11.07
2022-08-04T02:24:47.528Z,10.55
2022-08-04T02:28:00.259Z,10.25
2022-08-04T02:30:36.122Z,9.43
2022-08-04T02:33:09.666Z,11.23
2022-08-04T02:35:43.303Z,10.55
2022-08-04T02:38:35.754Z,10.90
2022-08-04T02:41:11.119Z,11.07
2022-08-04T02:43:51.469Z,12.88
2022-08-04T02:46:25.294Z,11.57
2022-08-04T02:48:58.053Z,12.25
2022-08-04T02:51:34.927Z,10.88
2022-08-04T02:54:08.396Z,11.25
2022-08-04T02:56:41.439Z,12.60
2022-08-04T02:59:14.659Z,10.85
2022-08-04T03:01:58.100Z,11.27
2022-08-04T03:05:01.187Z,11.82
2022-08-04T03:08:08.049Z,12.50
2022-08-04T03:11:10.836Z,11.32
2022-08-04T03:14:15.088Z,11.02
2022-08-04T03:16:58.969Z,11.55
2022-08-04T03:19:42.487Z,9.90
2022-08-04T03:22:29.975Z,11.43
2022-08-04T03:25:56.999Z,11.50
2022-08-04T03:29:00.760Z,10.48
2022-08-04T03:32:05.099Z,12.07
2022-08-04T03:35:23.187Z,10.30
2022-08-04T03:38:24.360Z,9.23
2022-08-04T03:41:51.585Z,9.15
2022-08-04T03:45:23.148Z,9.77
2022-08-04T03:48:14.643Z,10.40
2022-08-04T03:51:36.027Z,9.07
2022-08-04T03:54:31.842Z,10.70
2022-08-04T03:58:02.518Z,9.85
2022-08-04T04:00:40.952Z,14.38
2022-08-04T04:03:59.011Z,10.35
2022-08-04T04:07:19.644Z,9.05
2022-08-04T04:10:28.748Z,9.68
2022-08-04T04:13:30.534Z,11.05
2022-08-04T04:16:14.431Z,9.70
2022-08-04T04:19:36.851Z,10.20
2022-08-04T04:22:29.837Z,9.50
2022-08-04T04:25:43.971Z,10.13
2022-08-04T04:28:44.626Z,9.65
2022-08-04T04:31:38.906Z,9.95
2022-08-04T04:34:46.211Z,11.05
2022-08-04T04:38:16.318Z,10.52
2022-08-04T04:41:29.584Z,10.20
2022-08-04T04:44:30.667Z,9.68
2022-08-04T04:47:16.248Z,9.50
2022-08-04T04:49:57.037Z,9.38
2022-08-04T04:52:55.256Z,9.88
2022-08-04T04:55:43.959Z,8.70
2022-08-04T04:58:22.904Z,8.98
2022-08-04T05:01:31.635Z,8.63
2022-08-04T05:04:59.556Z,8.63
2022-08-04T05:07:50.520Z,7.68
2022-08-04T05:10:57.083Z,7.20
2022-08-04T05:14:35.951Z,6.80
2022-08-04T05:16:38.188Z,6.55
2022-08-04T05:19:28.053Z,6.05
2022-08-04T05:22:14.685Z,5.60
2022-08-04T05:24:49.894Z,5.68
2022-08-04T05:27:30.023Z,6.25
2022-08-04T05:30:06.364Z,6.10
2022-08-04T05:32:47.197Z,4.97
2022-08-04T05:35:52.845Z,5.90
2022-08-04T05:38:29.735Z,5.60
2022-08-04T05:41:03.066Z,5.38
2022-08-04T05:43:37.684Z,6.22
2022-08-04T05:46:11.614Z,5.90
2022-08-04T05:48:45.490Z,6.32
2022-08-04T05:51:18.354Z,7.22
2022-08-04T05:53:52.087Z,5.28
2022-08-04T05:56:25.109Z,6.07
2022-08-04T05:58:57.553Z,5.00
2022-08-04T06:01:30.901Z,5.40
2022-08-04T06:04:06.869Z,5.25
2022-08-04T06:06:45.522Z,4.55
2022-08-04T06:09:17.544Z,4.53
2022-08-04T06:12:00.799Z,6.10
2022-08-04T06:14:42.601Z,6.28
2022-08-04T06:18:33.368Z,5.15
2022-08-04T06:20:22.788Z,7.07
2022-08-04T06:23:00.369Z,5.32
2022-08-04T06:25:38.679Z,5.03
2022-08-04T06:28:11.821Z,5.47
2022-08-04T06:30:47.923Z,4.55
2022-08-04T06:33:28.051Z,6.15
2022-08-04T06:38:37.737Z,5.00
2022-08-04T06:41:09.846Z,3.60
2022-08-04T06:43:42.889Z,4.72
2022-08-04T06:46:16.458Z,5.07
2022-08-04T06:48:51.017Z,4.22
2022-08-04T06:51:35.568Z,3.80
2022-08-04T06:56:45.787Z,4.05
2022-08-04T06:59:18.741Z,3.83
2022-08-04T07:01:52.105Z,3.85
2022-08-04T07:04:24.239Z,3.20
2022-08-04T07:06:56.275Z,4.50
2022-08-04T07:09:28.348Z,7.53
2022-08-04T07:12:05.570Z,3.50
2022-08-04T07:14:39.828Z,4.55
2022-08-04T07:17:12.097Z,3.03
2022-08-04T07:19:44.667Z,3.45
2022-08-04T07:22:25.575Z,3.30
2022-08-04T07:24:59.177Z,3.28
2022-08-04T07:27:47.779Z,3.55
2022-08-04T07:30:24.858Z,4.00
2022-08-04T07:32:57.475Z,3.10
2022-08-04T07:36:04.392Z,3.45
2022-08-04T07:38:27.476Z,3.30
2022-08-04T07:41:01.428Z,3.13
2022-08-04T07:43:33.630Z,2.40
2022-08-04T07:46:05.882Z,3.95
2022-08-04T07:48:38.913Z,2.83
2022-08-04T07:51:11.932Z,3.00
2022-08-04T07:53:55.224Z,2.67
2022-08-04T07:56:28.735Z,2.83
2022-08-04T07:59:01.601Z,2.53
2022-08-04T08:01:36.750Z,2.15
2022-08-04T08:04:10.879Z,3.22
2022-08-04T08:06:43.443Z,2.17
2022-08-04T08:09:19.400Z,2.15
2022-08-04T08:12:36.283Z,2.40
2022-08-04T08:14:46.735Z,2.03
2022-08-04T08:17:18.854Z,2.20
2022-08-04T08:19:51.308Z,2.45
2022-08-04T08:22:23.715Z,2.22
2022-08-04T08:24:55.898Z,2.00
2022-08-04T08:27:27.937Z,2.00
2022-08-04T08:30:00.214Z,1.88
2022-08-04T08:32:32.396Z,1.95
2022-08-04T08:35:04.820Z,2.20
2022-08-04T08:37:50.677Z,2.00
2022-08-04T08:40:40.410Z,1.70
2022-08-04T08:44:05.669Z,2.17
2022-08-04T08:47:27.425Z,2.17
2022-08-04T08:50:46.515Z,2.10
2022-08-04T08:54:15.899Z,1.85
2022-08-04T08:57:18.945Z,2.03
2022-08-04T09:00:16.852Z,2.08
2022-08-04T09:03:28.338Z,2.00
2022-08-04T09:06:19.267Z,1.60
2022-08-04T09:09:09.294Z,2.25
2022-08-04T09:12:28.069Z,1.92
2022-08-04T09:15:14.809Z,1.58
2022-08-04T09:18:01.209Z,2.10
2022-08-04T09:20:59.841Z,1.60
2022-08-04T09:24:00.556Z,2.77
2022-08-04T09:27:01.286Z,2.08
2022-08-04T09:30:06.386Z,2.47
2022-08-04T09:32:58.934Z,2.05
2022-08-04T09:35:47.164Z,1.95
2022-08-04T09:38:37.580Z,1.85
2022-08-04T09:41:48.221Z,2.17
2022-08-04T09:44:48.901Z,1.77
2022-08-04T09:47:48.137Z,1.98
2022-08-04T09:50:50.010Z,2.05
2022-08-04T09:53:31.383Z,2.20
2022-08-04T09:56:10.940Z,1.50
2022-08-04T10:01:42.032Z,1.40
2022-08-04T10:04:15.587Z,1.90
2022-08-04T10:07:23.341Z,1.60
2022-08-04T10:10:32.515Z,1.83
2022-08-04T10:13:19.719Z,1.77
2022-08-04T10:15:57.654Z,2.13
2022-08-04T10:18:45.239Z,1.70
2022-08-04T10:21:50.601Z,1.95
2022-08-04T10:26:03.389Z,1.63
2022-08-04T10:28:10.045Z,1.80
2022-08-04T10:30:56.316Z,1.40
2022-08-04T10:33:53.868Z,1.38
2022-08-04T10:36:33.237Z,1.52
2022-08-04T10:39:42.291Z,1.17
2022-08-04T10:42:32.414Z,1.50
2022-08-04T10:45:15.265Z,1.52
2022-08-04T10:48:14.801Z,1.45
2022-08-04T10:51:22.925Z,1.13
2022-08-04T10:54:03.469Z,1.33
2022-08-04T10:56:56.785Z,1.65
2022-08-04T10:59:48.030Z,1.50
2022-08-04T11:02:27.441Z,1.23
2022-08-04T11:05:19.646Z,1.33
2022-08-04T11:08:00.109Z,1.00
2022-08-04T11:10:42.378Z,0.93
2022-08-04T11:13:22.233Z,1.25
2022-08-04T11:16:16.378Z,1.15
2022-08-04T11:19:45.231Z,1.30
2022-08-04T11:22:23.655Z,1.63
2022-08-04T11:25:15.250Z,1.33
2022-08-04T11:28:13.276Z,1.33
2022-08-04T11:31:08.235Z,1.13
2022-08-04T11:33:52.987Z,1.13
2022-08-04T11:36:58.479Z,1.20
2022-08-04T11:39:52.379Z,0.90
2022-08-04T11:42:29.366Z,1.00
2022-08-04T11:45:08.248Z,1.13
2022-08-04T11:48:00.986Z,0.77
2022-08-04T11:50:43.801Z,0.95
2022-08-04T11:53:19.898Z,0.80
2022-08-04T11:56:08.101Z,0.88
2022-08-04T11:58:41.993Z,1.00
2022-08-04T12:01:28.186Z,1.00
2022-08-04T12:04:14.368Z,1.53
2022-08-04T12:07:31.611Z,1.02
2022-08-04T12:10:41.529Z,1.10
2022-08-04T12:14:15.153Z,0.93
2022-08-04T12:17:02.113Z,0.68
2022-08-04T12:20:05.117Z,1.20
2022-08-04T12:22:51.118Z,1.23
2022-08-04T12:25:45.514Z,0.73
2022-08-04T12:29:09.158Z,1.27
2022-08-04T12:31:51.426Z,1.08
2022-08-04T12:34:35.452Z,0.50
2022-08-04T12:37:48.153Z,0.70
2022-08-04T12:40:30.152Z,0.70
2022-08-04T12:43:34.199Z,0.73
2022-08-04T12:46:12.270Z,0.85
2022-08-04T12:48:47.450Z,0.90
2022-08-04T12:51:31.179Z,1.08
2022-08-04T12:54:14.624Z,0.70
2022-08-04T12:56:47.291Z,0.70
2022-08-04T12:59:20.395Z,0.98
2022-08-04T13:02:09.628Z,0.60
2022-08-04T13:04:51.452Z,1.02
2022-08-04T13:07:27.020Z,0.70
2022-08-04T13:10:10.566Z,0.50
2022-08-04T13:12:53.364Z,0.80
2022-08-04T13:15:28.099Z,0.63
2022-08-04T13:18:15.129Z,0.82
2022-08-04T13:20:48.006Z,0.47
2022-08-04T13:23:21.918Z,0.60
2022-08-04T13:26:44.055Z,1.15
2022-08-04T13:28:53.070Z,0.85
2022-08-04T13:31:35.919Z,0.90
2022-08-04T13:34:19.223Z,0.73
2022-08-04T13:36:56.324Z,1.23
2022-08-04T13:39:29.469Z,0.65
2022-08-04T13:42:09.664Z,0.93
2022-08-04T13:44:48.088Z,1.42
2022-08-04T13:47:23.979Z,1.17
2022-08-04T13:50:27.612Z,1.67
2022-08-04T13:53:02.636Z,1.60
2022-08-04T13:55:36.926Z,1.80
2022-08-04T13:58:19.995Z,2.22
2022-08-04T14:01:06.280Z,2.90
2022-08-04T14:03:57.749Z,2.10
2022-08-04T14:06:34.969Z,2.67
2022-08-04T14:09:17.769Z,3.95
2022-08-04T14:12:06.427Z,3.05
2022-08-04T14:14:50.309Z,2.80
2022-08-04T14:17:30.412Z,3.05
2022-08-04T14:20:04.630Z,3.35
2022-08-04T14:22:37.198Z,2.90
2022-08-04T14:25:17.876Z,3.15
2022-08-04T14:27:55.512Z,3.38
2022-08-04T14:30:36.208Z,3.35
2022-08-04T14:34:03.624Z,3.10
2022-08-04T14:36:04.593Z,2.15
2022-08-04T14:38:58.483Z,4.05
2022-08-04T14:41:50.059Z,4.25
2022-08-04T14:44:22.047Z,5.82
2022-08-04T14:46:59.176Z,3.70
2022-08-04T14:49:31.152Z,4.15
2022-08-04T14:52:03.221Z,3.63
2022-08-04T14:54:36.099Z,5.10
2022-08-04T14:57:08.905Z,4.30
2022-08-04T15:00:02.495Z,5.85
2022-08-04T15:02:36.318Z,5.70
2022-08-04T15:06:02.198Z,4.90
2022-08-04T15:08:00.890Z,5.88
2022-08-04T15:10:33.121Z,5.43
2022-08-04T15:13:07.008Z,5.72
2022-08-04T15:15:43.383Z,5.90
2022-08-04T15:18:34.942Z,5.38
2022-08-04T15:21:07.999Z,5.05
2022-08-04T15:23:40.357Z,5.78
2022-08-04T15:26:17.610Z,6.03
2022-08-04T15:28:56.467Z,6.35
2022-08-04T15:32:06.307Z,5.75
2022-08-04T15:34:23.856Z,5.50
2022-08-04T15:37:06.945Z,5.65
2022-08-04T15:39:53.200Z,5.80
2022-08-04T15:43:15.418Z,5.50
2022-08-04T15:46:02.392Z,5.55
2022-08-04T15:48:52.251Z,4.38
2022-08-04T15:51:30.470Z,5.65
2022-08-04T15:54:23.427Z,5.97
2022-08-04T15:57:01.591Z,6.68
2022-08-04T16:00:11.309Z,5.47
2022-08-04T16:02:47.007Z,5.05
2022-08-04T16:05:22.505Z,5.30
2022-08-04T16:07:57.519Z,5.32
2022-08-04T16:10:35.250Z,5.20
2022-08-04T16:13:19.934Z,4.90
2022-08-04T16:15:56.502Z,4.38
2022-08-04T16:18:35.432Z,3.35
2022-08-04T16:21:23.345Z,3.45
2022-08-04T16:24:13.858Z,3.67
2022-08-04T16:26:56.890Z,3.33
2022-08-04T16:29:43.912Z,3.53
2022-08-04T16:32:26.270Z,3.00
2022-08-04T16:35:04.513Z,4.10
2022-08-04T16:37:38.679Z,3.40
2022-08-04T16:40:38.574Z,3.05
2022-08-04T16:43:18.255Z,3.90
2022-08-04T16:46:04.110Z,3.00
2022-08-04T16:48:36.982Z,2.75
2022-08-04T16:51:14.809Z,2.42
2022-08-04T16:54:03.874Z,2.97
2022-08-04T16:56:37.770Z,2.83
2022-08-04T16:59:12.534Z,2.47
2022-08-04T17:01:53.584Z,3.05
2022-08-04T17:04:34.753Z,3.10
2022-08-04T17:07:07.039Z,2.53
2022-08-04T17:09:50.889Z,2.70
2022-08-04T17:12:29.129Z,2.78
2022-08-04T17:15:01.106Z,2.80
2022-08-04T17:17:59.125Z,2.78
2022-08-04T17:20:28.117Z,2.88
2022-08-04T17:24:16.595Z,2.85
2022-08-04T17:26:39.920Z,3.47
2022-08-04T17:29:13.467Z,2.55
2022-08-04T17:31:53.330Z,2.30
2022-08-04T17:34:26.599Z,2.05
2022-08-04T17:37:24.293Z,2.50
2022-08-04T17:40:09.936Z,2.28
2022-08-04T17:42:45.323Z,1.90
2022-08-04T17:45:50.938Z,2.10
2022-08-04T17:48:24.863Z,2.70
2022-08-04T17:51:16.673Z,1.90
2022-08-04T17:54:02.233Z,2.38
2022-08-04T17:56:52.346Z,1.95
2022-08-04T17:59:55.421Z,2.63
2022-08-04T18:02:34.860Z,1.90
2022-08-04T18:05:12.182Z,1.77
2022-08-04T18:08:37.748Z,1.80
2022-08-04T18:10:52.483Z,2.20
2022-08-04T18:13:28.884Z,7.22
2022-08-04T18:16:14.474Z,1.73
2022-08-04T18:19:12.310Z,1.85
2022-08-04T18:21:59.763Z,1.52
2022-08-04T18:24:56.103Z,2.33
2022-08-04T18:27:30.660Z,2.35
2022-08-04T18:30:34.598Z,3.15
2022-08-04T18:33:10.593Z,3.40
2022-08-04T18:36:33.963Z,3.60
2022-08-04T18:38:54.471Z,2.63
2022-08-04T18:41:28.794Z,1.83
2022-08-04T18:44:28.205Z,3.30
2022-08-04T18:47:19.143Z,2.75
2022-08-04T18:50:58.802Z,2.42
2022-08-04T18:52:45.839Z,2.42
2022-08-04T18:55:56.167Z,3.08
2022-08-04T18:58:12.790Z,6.65
2022-08-04T19:00:48.314Z,5.32
2022-08-04T19:03:23.087Z,3.50
2022-08-04T19:05:55.465Z,3.58
2022-08-04T19:08:34.452Z,2.58
2022-08-04T19:11:38.280Z,3.47
2022-08-04T19:14:04.669Z,3.70
2022-08-04T19:16:40.745Z,3.28
2022-08-04T19:19:13.632Z,4.47
2022-08-04T19:21:59.957Z,4.53
2022-08-04T19:24:34.643Z,4.22
2022-08-04T19:27:08.708Z,5.50
2022-08-04T19:29:46.229Z,6.10
2022-08-04T19:32:18.366Z,6.13
2022-08-04T19:34:51.931Z,6.32
2022-08-04T19:37:58.559Z,6.72
2022-08-04T19:40:16.676Z,7.32
2022-08-04T19:43:14.998Z,11.95
2022-08-04T19:45:47.659Z,9.30
2022-08-04T19:48:20.275Z,8.35
2022-08-04T19:50:52.380Z,8.70
2022-08-04T19:56:17.324Z,8.35
2022-08-04T19:58:49.309Z,8.20
2022-08-04T20:01:33.410Z,8.60
2022-08-04T20:04:11.424Z,8.63
2022-08-04T20:06:44.678Z,8.10
2022-08-04T20:09:25.381Z,8.60
2022-08-04T20:11:59.039Z,8.10
2022-08-04T20:14:33.246Z,8.93
2022-08-04T20:17:10.367Z,8.88
2022-08-04T20:19:51.497Z,9.65
2022-08-04T20:22:51.710Z,9.95
2022-08-04T20:25:35.873Z,10.00
2022-08-04T20:28:09.518Z,11.15
2022-08-04T20:30:58.006Z,9.98
2022-08-04T20:33:30.094Z,10.43
2022-08-04T20:36:05.515Z,10.43
2022-08-04T20:38:39.464Z,10.45
2022-08-04T20:41:11.647Z,9.98
2022-08-04T20:43:49.748Z,9.48
2022-08-04T20:46:29.798Z,10.18
2022-08-04T20:49:03.457Z,10.23
2022-08-04T20:51:40.028Z,9.35
2022-08-04T20:54:16.080Z,9.10
2022-08-04T20:56:50.711Z,9.45
2022-08-04T20:59:23.276Z,9.85
2022-08-04T21:01:56.821Z,9.55
2022-08-04T21:04:31.457Z,10.00
2022-08-04T21:07:07.339Z,9.20
2022-08-04T21:09:50.732Z,9.45
2022-08-04T21:12:26.668Z,10.40
2022-08-04T21:15:14.005Z,9.52
2022-08-04T21:17:59.224Z,9.55
2022-08-04T21:20:42.382Z,10.10
2022-08-04T21:23:15.403Z,9.88
2022-08-04T21:25:55.377Z,9.10
2022-08-04T21:28:30.968Z,9.90
2022-08-04T21:31:21.655Z,9.23
2022-08-04T21:33:54.358Z,9.52
2022-08-04T21:36:27.434Z,8.43
2022-08-04T21:38:59.790Z,9.32
2022-08-04T21:41:44.587Z,9.30
2022-08-04T21:44:26.115Z,8.52
2022-08-04T21:46:59.684Z,8.98
2022-08-04T21:49:31.690Z,10.05
2022-08-04T21:52:07.478Z,9.20
2022-08-04T21:54:42.482Z,9.93
2022-08-04T21:57:16.916Z,10.02
2022-08-04T21:59:48.920Z,10.07
2022-08-04T22:02:21.815Z,9.52
2022-08-04T22:04:53.880Z,9.25
2022-08-04T22:07:26.198Z,9.20
2022-08-04T22:10:22.518Z,9.27
2022-08-04T22:13:07.247Z,9.18
2022-08-04T22:16:04.049Z,9.68
2022-08-04T22:18:31.721Z,9.40
2022-08-04T22:21:09.729Z,9.18
2022-08-04T22:23:45.376Z,9.15
2022-08-04T22:26:26.567Z,9.35
2022-08-04T22:28:59.143Z,9.25
2022-08-04T22:31:56.212Z,10.43
2022-08-04T22:34:24.186Z,7.88
2022-08-04T22:36:56.201Z,8.68
2022-08-04T22:39:28.172Z,9.23
2022-08-04T22:42:03.915Z,8.18
2022-08-04T22:44:36.596Z,7.47
2022-08-04T22:47:20.463Z,7.47
2022-08-04T22:50:13.391Z,7.25
2022-08-04T22:52:55.582Z,7.18
2022-08-04T22:56:07.674Z,7.32
2022-08-04T22:58:20.332Z,5.97
2022-08-04T23:00:54.003Z,6.43
2022-08-04T23:03:37.343Z,6.25
2022-08-04T23:06:11.916Z,6.40
2022-08-04T23:08:46.497Z,7.13
2022-08-04T23:11:20.936Z,5.32
2022-08-04T23:13:52.925Z,5.72
2022-08-04T23:16:25.294Z,5.57
2022-08-04T23:19:00.274Z,5.53
2022-08-04T23:21:47.228Z,5.75
2022-08-04T23:24:20.093Z,5.70
2022-08-04T23:26:52.085Z,5.07
2022-08-04T23:29:24.553Z,4.65
2022-08-04T23:32:00.673Z,4.40
2022-08-04T23:34:32.639Z,4.38
2022-08-04T23:37:04.715Z,4.22
2022-08-04T23:40:03.275Z,3.65
2022-08-04T23:42:28.629Z,3.75
2022-08-04T23:45:01.131Z,3.35
2022-08-04T23:48:18.709Z,3.70
2022-08-04T23:50:25.263Z,3.30
2022-08-04T23:52:57.418Z,3.38
2022-08-04T23:55:32.008Z,3.20
2022-08-04T23:58:17.046Z,3.60
